Time;durP1;ratioP1;P1;durP2;ratioP2;P2;SDS_P1;SDS_P2;PMS_P1;PMS_P2;Temp;Humidity;BMP_temperature;BMP_pressure;BME280_temperature;BME280_humidity;BME280_pressure;Samples;Min_cycle;Max_cycle;Signal;HPM_P1;HPM_P2
2023/01/09 00:01:28;;;;;;;2.67;1.23;;;8.40;99.90;;;;;;5060488;28;20196;-82
2023/01/09 00:03:54;;;;;;;1.87;1.10;;;8.40;99.90;;;;;;5059400;28;20230;-82
2023/01/09 00:06:19;;;;;;;2.00;1.20;;;8.40;99.90;;;;;;5061577;28;20171;-82
2023/01/09 00:08:45;;;;;;;2.83;1.20;;;8.40;99.90;;;;;;5059947;28;20172;-82
2023/01/09 00:11:10;;;;;;;5.07;1.03;;;8.40;99.90;;;;;;5059816;28;20196;-82
2023/01/09 00:13:36;;;;;;;6.17;1.37;;;8.40;99.90;;;;;;5059535;28;20179;-82
2023/01/09 00:16:07;;;;;;;1.57;1.00;;;8.40;99.90;;;;;;5059941;28;20600;-82
2023/01/09 00:18:33;;;;;;;2.13;1.10;;;8.40;99.90;;;;;;5061581;28;20658;-82
2023/01/09 00:21:04;;;;;;;5.13;1.33;;;8.30;99.90;;;;;;5060768;28;20207;-82
2023/01/09 00:23:30;;;;;;;2.77;1.10;;;8.30;99.90;;;;;;5058981;28;20651;-82
2023/01/09 00:26:08;;;;;;;3.17;0.90;;;8.30;99.90;;;;;;5060017;28;20179;-82
2023/01/09 00:28:34;;;;;;;3.17;1.07;;;8.30;99.90;;;;;;5059919;28;20211;-82
2023/01/09 00:31:02;;;;;;;1.23;0.87;;;8.30;99.90;;;;;;5062763;28;20217;-82
2023/01/09 00:33:43;;;;;;;2.00;0.97;;;8.30;99.90;;;;;;5062873;28;20171;-82
2023/01/09 00:36:09;;;;;;;0.93;0.70;;;8.20;99.90;;;;;;5060374;28;20194;-82
2023/01/09 00:38:37;;;;;;;1.23;0.67;;;8.20;99.90;;;;;;5060763;28;20618;-82
2023/01/09 00:41:10;;;;;;;1.00;0.73;;;8.20;99.90;;;;;;5060031;28;20190;-82
2023/01/09 00:43:41;;;;;;;1.27;0.80;;;8.10;99.90;;;;;;5058700;28;20301;-82
2023/01/09 00:46:07;;;;;;;1.03;0.60;;;8.10;99.90;;;;;;5058727;28;20623;-82
2023/01/09 00:48:36;;;;;;;0.60;0.60;;;8.10;99.90;;;;;;5059058;28;20673;-82
2023/01/09 00:51:01;;;;;;;1.00;0.50;;;8.10;99.90;;;;;;5057051;28;20206;-82
2023/01/09 00:53:30;;;;;;;0.60;0.50;;;8.00;99.90;;;;;;5059109;28;20172;-82
2023/01/09 00:55:59;;;;;;;0.43;0.43;;;8.00;99.90;;;;;;5059616;28;20168;-82
2023/01/09 00:58:25;;;;;;;0.53;0.40;;;8.00;99.90;;;;;;5059923;28;20278;-82
2023/01/09 01:00:50;;;;;;;0.40;0.40;;;8.00;99.90;;;;;;5057622;28;20215;-82
2023/01/09 01:03:16;;;;;;;0.50;0.40;;;7.90;99.90;;;;;;5058341;28;20535;-82
2023/01/09 01:08:25;;;;;;;0.57;0.57;;;7.90;99.90;;;;;;5058527;28;20242;-82
2023/01/09 01:10:51;;;;;;;0.37;0.37;;;7.90;99.90;;;;;;5056807;28;20237;-82
2023/01/09 01:13:17;;;;;;;0.53;0.40;;;7.80;99.90;;;;;;5058327;28;20203;-82
2023/01/09 01:15:44;;;;;;;0.40;0.40;;;7.80;99.90;;;;;;5056796;28;20183;-82
2023/01/09 01:18:11;;;;;;;0.60;0.50;;;7.80;99.90;;;;;;5057444;28;20241;-82
2023/01/09 01:20:40;;;;;;;0.90;0.40;;;7.80;99.90;;;;;;5056791;28;20575;-82
2023/01/09 01:23:06;;;;;;;0.30;0.30;;;7.80;99.90;;;;;;5058550;28;20203;-82
2023/01/09 01:25:34;;;;;;;1.90;0.40;;;7.70;99.90;;;;;;5059048;28;20213;-82
2023/01/09 01:27:59;;;;;;;0.20;0.20;;;7.70;99.90;;;;;;5057882;28;20341;-82
2023/01/09 01:30:26;;;;;;;0.53;0.30;;;7.70;99.90;;;;;;5058657;28;20713;-82
2023/01/09 01:32:51;;;;;;;0.33;0.30;;;7.70;99.90;;;;;;5059436;28;20171;-82
2023/01/09 01:35:17;;;;;;;0.60;0.30;;;7.70;99.90;;;;;;5059179;28;20180;-82
2023/01/09 01:37:42;;;;;;;1.90;0.30;;;7.70;99.90;;;;;;5057913;28;20249;-82
2023/01/09 01:40:09;;;;;;;0.20;0.20;;;7.70;99.90;;;;;;5058804;28;20192;-82
2023/01/09 01:42:35;;;;;;;0.27;0.27;;;7.70;99.90;;;;;;5058704;28;20713;-82
2023/01/09 01:45:12;;;;;;;0.30;0.30;;;7.60;99.90;;;;;;5057606;28;20209;-82
2023/01/09 01:47:59;;;;;;;0.30;0.30;;;7.70;99.90;;;;;;5060088;28;20605;-82
2023/01/09 01:50:44;;;;;;;1.37;0.40;;;7.70;99.90;;;;;;5058354;28;20239;-83
2023/01/09 01:53:18;;;;;;;0.57;0.40;;;7.70;99.90;;;;;;5058256;28;20179;-82
2023/01/09 01:55:52;;;;;;;0.20;0.20;;;7.70;99.90;;;;;;5060021;28;20164;-82
2023/01/09 01:58:19;;;;;;;1.47;0.40;;;7.70;99.90;;;;;;5058089;28;20190;-82
2023/01/09 02:00:46;;;;;;;2.80;0.40;;;7.60;99.90;;;;;;5060046;28;20187;-82
2023/01/09 02:03:17;;;;;;;0.60;0.40;;;7.60;99.90;;;;;;5058108;28;20294;-82
2023/01/09 02:05:43;;;;;;;0.73;0.43;;;7.60;99.90;;;;;;5059798;28;20168;-82
2023/01/09 02:08:09;;;;;;;0.20;0.20;;;7.60;99.90;;;;;;5060591;28;20172;-82
2023/01/09 02:10:36;;;;;;;1.23;0.40;;;7.60;99.90;;;;;;5059902;28;20278;-82
2023/01/09 02:13:03;;;;;;;0.37;0.30;;;7.60;99.90;;;;;;5057928;28;20182;-82
2023/01/09 02:15:50;;;;;;;0.33;0.33;;;7.60;99.90;;;;;;5060013;28;20172;-82
2023/01/09 02:18:33;;;;;;;4.03;0.63;;;7.60;99.90;;;;;;5058361;28;20663;-82
2023/01/09 02:21:13;;;;;;;1.37;0.40;;;7.50;99.90;;;;;;5060107;28;20248;-82
2023/01/09 02:24:08;;;;;;;1.40;0.70;;;7.50;99.90;;;;;;5061491;28;20155;-82
2023/01/09 02:27:06;;;;;;;0.43;0.40;;;7.50;99.90;;;;;;5059169;28;20159;-82
2023/01/09 02:30:02;;;;;;;0.57;0.40;;;7.50;99.90;;;;;;5059849;28;20183;-82
2023/01/09 02:32:49;;;;;;;2.13;0.60;;;7.40;99.90;;;;;;5059661;28;20170;-82
2023/01/09 02:35:15;;;;;;;1.70;0.50;;;7.40;99.90;;;;;;5060523;28;20174;-82
2023/01/09 02:37:48;;;;;;;1.43;0.57;;;7.30;99.90;;;;;;5059544;28;20199;-82
2023/01/09 02:40:32;;;;;;;0.90;0.50;;;7.30;99.90;;;;;;5061592;28;20207;-82
2023/01/09 02:43:00;;;;;;;5.23;0.60;;;7.30;99.90;;;;;;5062427;28;20211;-82
2023/01/09 02:45:25;;;;;;;0.50;0.43;;;7.30;99.90;;;;;;5062747;28;20175;-82
2023/01/09 02:47:51;;;;;;;0.30;0.30;;;7.20;99.90;;;;;;5060012;28;20550;-82
2023/01/09 02:50:35;;;;;;;0.87;0.60;;;7.20;99.90;;;;;;5062389;28;20199;-82
2023/01/09 02:53:39;;;;;;;0.83;0.50;;;7.20;99.90;;;;;;5061293;28;20241;-82
2023/01/09 02:56:30;;;;;;;0.90;0.50;;;7.10;99.90;;;;;;5062506;28;20160;-82
2023/01/09 02:59:01;;;;;;;5.10;1.17;;;7.20;99.90;;;;;;5062762;28;20279;-82
2023/01/09 03:01:39;;;;;;;1.03;0.70;;;7.10;99.90;;;;;;5063475;28;20187;-82
2023/01/09 03:04:22;;;;;;;2.00;0.80;;;7.20;99.90;;;;;;5062110;28;20551;-82
2023/01/09 03:06:59;;;;;;;3.80;0.80;;;7.20;99.90;;;;;;5063745;28;20156;-82
2023/01/09 03:09:29;;;;;;;3.57;0.70;;;7.20;99.90;;;;;;5063528;28;20178;-82
2023/01/09 03:12:21;;;;;;;1.57;0.70;;;7.20;99.90;;;;;;5064477;28;20195;-82
2023/01/09 03:14:52;;;;;;;2.00;0.60;;;7.20;99.90;;;;;;5061345;28;20180;-82
2023/01/09 03:17:40;;;;;;;0.83;0.50;;;7.20;99.90;;;;;;5069335;28;20176;-82
2023/01/09 03:20:09;;;;;;;1.30;0.50;;;7.20;99.90;;;;;;5076691;28;20160;-83
2023/01/09 03:22:34;;;;;;;1.77;0.70;;;7.20;99.90;;;;;;5080232;28;20182;-83
2023/01/09 03:25:00;;;;;;;1.40;0.80;;;7.20;99.90;;;;;;5080028;28;20207;-83
2023/01/09 03:27:26;;;;;;;0.60;0.60;;;7.20;99.90;;;;;;5058945;28;20206;-82
2023/01/09 03:29:52;;;;;;;2.30;1.10;;;7.20;99.90;;;;;;5059911;28;20270;-83
2023/01/09 03:32:18;;;;;;;1.43;0.90;;;7.10;99.90;;;;;;5058213;28;20645;-82
2023/01/09 03:34:43;;;;;;;1.93;1.00;;;7.10;99.90;;;;;;5057961;28;20184;-83
2023/01/09 03:37:09;;;;;;;2.13;0.90;;;7.10;99.90;;;;;;5058617;28;20265;-82
2023/01/09 03:39:35;;;;;;;1.73;0.80;;;7.00;99.90;;;;;;5060433;28;20268;-82
2023/01/09 03:42:00;;;;;;;5.57;2.13;;;7.00;99.90;;;;;;5057939;28;20194;-82
2023/01/09 03:44:26;;;;;;;2.13;1.00;;;7.00;99.90;;;;;;5058200;28;20175;-82
2023/01/09 03:46:51;;;;;;;4.83;1.60;;;6.90;99.90;;;;;;5059523;28;20167;-82
2023/01/09 03:49:17;;;;;;;2.70;1.00;;;6.90;99.90;;;;;;5058429;28;20553;-82
2023/01/09 03:51:43;;;;;;;2.93;1.03;;;7.00;99.90;;;;;;5057899;28;20754;-82
2023/01/09 03:54:09;;;;;;;1.40;0.90;;;6.80;99.90;;;;;;5058571;28;20279;-82
2023/01/09 03:56:34;;;;;;;1.90;0.90;;;6.60;99.90;;;;;;5057493;28;20278;-82
2023/01/09 03:59:00;;;;;;;1.77;0.80;;;6.70;99.90;;;;;;5057885;28;20232;-82
2023/01/09 04:01:25;;;;;;;4.67;1.50;;;6.70;99.90;;;;;;5058890;28;20202;-82
2023/01/09 04:03:51;;;;;;;6.17;1.00;;;6.70;99.90;;;;;;5058681;28;20183;-82
2023/01/09 04:06:16;;;;;;;7.10;1.23;;;6.60;99.90;;;;;;5057302;28;20172;-82
2023/01/09 04:08:42;;;;;;;2.77;1.10;;;6.60;99.90;;;;;;5057442;28;20198;-83
2023/01/09 04:11:08;;;;;;;5.17;1.20;;;6.60;99.90;;;;;;5059142;28;20199;-82
2023/01/09 04:13:34;;;;;;;4.57;1.23;;;6.60;99.90;;;;;;5057787;28;20564;-82
2023/01/09 04:15:59;;;;;;;3.70;1.10;;;6.50;99.90;;;;;;5057343;28;20225;-82
2023/01/09 04:18:25;;;;;;;3.47;1.47;;;6.50;99.90;;;;;;5059030;28;20195;-82
2023/01/09 04:20:50;;;;;;;4.70;1.20;;;6.50;99.90;;;;;;5056539;28;20207;-82
2023/01/09 04:23:16;;;;;;;3.97;1.10;;;6.40;99.90;;;;;;5057229;28;20215;-82
2023/01/09 04:25:42;;;;;;;5.33;1.20;;;6.40;99.90;;;;;;5056937;28;20168;-83
2023/01/09 04:28:07;;;;;;;3.53;1.80;;;6.40;99.90;;;;;;5056858;28;20651;-82
2023/01/09 04:30:33;;;;;;;1.87;1.33;;;6.40;99.90;;;;;;5058244;28;20188;-83
2023/01/09 04:32:58;;;;;;;4.00;1.17;;;6.30;99.90;;;;;;5056782;28;20175;-82
2023/01/09 04:35:24;;;;;;;1.93;1.00;;;6.30;99.90;;;;;;5058539;28;20254;-82
2023/01/09 04:37:49;;;;;;;2.37;0.90;;;6.30;99.90;;;;;;5058370;28;20282;-82
2023/01/09 04:40:15;;;;;;;2.67;1.10;;;6.20;99.90;;;;;;5056523;28;20187;-82
2023/01/09 04:42:41;;;;;;;3.80;1.03;;;6.20;99.90;;;;;;5058420;28;20202;-82
2023/01/09 04:45:09;;;;;;;3.20;0.83;;;6.20;99.90;;;;;;5058032;28;20206;-82
2023/01/09 04:47:35;;;;;;;2.30;1.03;;;6.10;99.90;;;;;;5056649;28;20221;-82
2023/01/09 04:50:00;;;;;;;4.17;0.83;;;6.10;99.90;;;;;;5057791;28;20187;-82
2023/01/09 04:52:26;;;;;;;3.07;0.87;;;6.10;99.90;;;;;;5058017;28;20180;-82
2023/01/09 04:54:52;;;;;;;1.77;0.73;;;6.00;99.90;;;;;;5057087;28;20175;-82
2023/01/09 04:57:18;;;;;;;2.13;1.00;;;6.00;99.90;;;;;;5056479;28;20172;-82
2023/01/09 04:59:43;;;;;;;2.43;0.93;;;6.10;99.90;;;;;;5057690;28;20179;-82
2023/01/09 05:02:09;;;;;;;3.67;1.13;;;6.00;99.90;;;;;;5056094;28;20196;-83
2023/01/09 05:04:35;;;;;;;3.10;1.07;;;6.00;99.90;;;;;;5057681;28;20179;-82
2023/01/09 05:07:00;;;;;;;8.20;1.13;;;6.00;99.90;;;;;;5057238;28;20168;-82
2023/01/09 05:09:26;;;;;;;3.73;0.90;;;6.00;99.90;;;;;;5057964;28;20262;-83
2023/01/09 05:11:52;;;;;;;4.03;1.03;;;6.00;99.90;;;;;;5056934;28;20202;-82
2023/01/09 05:14:17;;;;;;;3.13;1.00;;;6.10;99.90;;;;;;5056610;28;20270;-82
2023/01/09 05:16:43;;;;;;;3.10;0.77;;;6.10;99.90;;;;;;5057884;28;20178;-82
2023/01/09 05:19:08;;;;;;;3.30;0.93;;;6.10;99.90;;;;;;5058493;28;20204;-82
2023/01/09 05:21:34;;;;;;;4.07;1.00;;;6.20;99.90;;;;;;5058968;28;20211;-82
2023/01/09 05:24:00;;;;;;;2.93;0.97;;;6.20;99.90;;;;;;5058995;28;20176;-82
2023/01/09 05:26:25;;;;;;;1.53;1.00;;;6.20;99.90;;;;;;5058110;28;20179;-82
2023/01/09 05:28:52;;;;;;;4.13;0.87;;;6.30;99.90;;;;;;5062348;28;20180;-82
2023/01/09 05:31:18;;;;;;;2.80;0.80;;;6.30;99.90;;;;;;5059865;28;20553;-82
2023/01/09 05:33:44;;;;;;;3.73;0.90;;;6.30;99.90;;;;;;5060923;28;20233;-82
2023/01/09 05:36:09;;;;;;;4.97;0.90;;;6.40;99.90;;;;;;5058921;28;20179;-82
2023/01/09 05:38:35;;;;;;;3.47;1.00;;;6.40;99.90;;;;;;5060015;28;20252;-82
2023/01/09 05:41:01;;;;;;;4.73;1.13;;;6.50;99.90;;;;;;5060353;28;20195;-82
2023/01/09 05:43:26;;;;;;;4.03;0.87;;;6.50;99.90;;;;;;5057907;28;20171;-82
2023/01/09 05:45:52;;;;;;;4.50;1.10;;;6.50;99.90;;;;;;5057883;28;20214;-82
2023/01/09 05:48:17;;;;;;;5.13;1.17;;;6.50;99.90;;;;;;5057660;28;20191;-83
2023/01/09 05:50:43;;;;;;;9.20;1.40;;;6.60;99.90;;;;;;5056159;28;20196;-84
2023/01/09 05:53:08;;;;;;;3.67;1.17;;;6.60;99.90;;;;;;5055065;28;20206;-84
2023/01/09 05:55:34;;;;;;;3.47;0.93;;;6.60;99.90;;;;;;5055188;28;20262;-84
2023/01/09 05:57:59;;;;;;;3.00;0.87;;;6.60;99.90;;;;;;5054598;28;20238;-84
2023/01/09 06:00:25;;;;;;;3.87;0.90;;;6.60;99.90;;;;;;5055386;28;20233;-83
2023/01/09 06:02:51;;;;;;;4.17;1.00;;;6.70;99.90;;;;;;5058181;28;20172;-84
2023/01/09 06:05:16;;;;;;;2.20;0.97;;;6.70;99.90;;;;;;5055716;28;20199;-84
2023/01/09 06:07:42;;;;;;;4.23;1.33;;;6.70;99.90;;;;;;5057523;28;20232;-84
2023/01/09 06:10:11;;;;;;;5.97;0.90;;;6.70;99.90;;;;;;5055660;28;20233;-84
2023/01/09 06:12:36;;;;;;;5.50;1.10;;;6.70;99.90;;;;;;5056864;28;20204;-84
2023/01/09 06:15:02;;;;;;;1.40;0.77;;;6.80;99.90;;;;;;5056737;28;20229;-84
2023/01/09 06:17:28;;;;;;;2.90;1.53;;;6.70;99.90;;;;;;5057506;28;20706;-83
2023/01/09 06:19:54;;;;;;;4.27;1.03;;;6.80;99.90;;;;;;5061294;28;20172;-83
2023/01/09 06:22:20;;;;;;;4.27;0.90;;;6.80;99.90;;;;;;5061308;28;20159;-84
2023/01/09 06:24:45;;;;;;;4.23;1.33;;;6.80;99.90;;;;;;5060702;28;20171;-83
2023/01/09 06:27:11;;;;;;;8.37;1.27;;;6.80;99.90;;;;;;5060796;28;20243;-83
2023/01/09 06:29:37;;;;;;;3.00;0.90;;;6.80;99.90;;;;;;5060444;28;20176;-83
2023/01/09 06:32:03;;;;;;;5.17;1.00;;;6.80;99.90;;;;;;5060326;28;20198;-83
2023/01/09 06:34:29;;;;;;;5.10;1.10;;;6.80;99.90;;;;;;5059459;28;20632;-83
2023/01/09 06:36:54;;;;;;;3.13;0.93;;;6.80;99.90;;;;;;5062125;28;20262;-84
2023/01/09 06:39:20;;;;;;;8.50;1.27;;;6.80;99.90;;;;;;5060587;28;20199;-83
2023/01/09 06:41:45;;;;;;;4.13;0.97;;;6.80;99.90;;;;;;5061154;28;20195;-83
2023/01/09 06:44:11;;;;;;;9.47;1.70;;;6.80;99.90;;;;;;5062742;28;20557;-84
2023/01/09 06:46:36;;;;;;;5.10;1.20;;;6.90;99.90;;;;;;5064094;28;20175;-83
2023/01/09 06:49:02;;;;;;;5.27;1.10;;;6.90;99.90;;;;;;5066455;28;20174;-83
2023/01/09 06:51:28;;;;;;;4.70;1.47;;;6.90;99.90;;;;;;5067514;28;20195;-83
2023/01/09 06:53:53;;;;;;;6.03;1.20;;;6.90;99.90;;;;;;5068924;28;20190;-83
2023/01/09 06:56:19;;;;;;;5.53;1.33;;;6.90;99.90;;;;;;5071358;28;20644;-83
2023/01/09 06:58:44;;;;;;;3.77;1.00;;;6.90;99.90;;;;;;5070621;28;20259;-83
2023/01/09 07:01:10;;;;;;;7.37;0.93;;;6.90;99.90;;;;;;5072461;28;20195;-83
2023/01/09 07:03:36;;;;;;;3.23;1.67;;;6.90;99.90;;;;;;5073320;28;20565;-83
2023/01/09 07:06:02;;;;;;;6.10;1.10;;;7.00;99.90;;;;;;5073802;28;20184;-83
2023/01/09 07:08:27;;;;;;;8.27;1.10;;;7.00;99.90;;;;;;5073431;28;20215;-83
2023/01/09 07:10:53;;;;;;;5.40;1.30;;;7.00;99.90;;;;;;5078960;28;20195;-83
2023/01/09 07:13:18;;;;;;;4.03;1.10;;;7.00;99.90;;;;;;5078802;28;20160;-83
2023/01/09 07:15:44;;;;;;;3.90;1.03;;;7.00;99.90;;;;;;5071186;28;20180;-84
2023/01/09 07:18:10;;;;;;;4.77;1.13;;;7.00;99.90;;;;;;5057485;28;20294;-83
2023/01/09 07:20:39;;;;;;;2.60;1.03;;;7.00;99.90;;;;;;5057380;28;20276;-83
2023/01/09 07:23:05;;;;;;;4.97;1.40;;;7.00;99.90;;;;;;5057685;28;20182;-83
2023/01/09 07:25:30;;;;;;;5.17;1.30;;;7.10;99.90;;;;;;5059154;28;20172;-84
2023/01/09 07:27:56;;;;;;;5.03;1.00;;;7.10;99.90;;;;;;5059329;28;20187;-83
2023/01/09 07:30:21;;;;;;;6.97;1.10;;;7.10;99.90;;;;;;5059618;28;20207;-83
2023/01/09 07:32:47;;;;;;;2.47;1.10;;;7.10;99.90;;;;;;5058219;28;20179;-83
2023/01/09 07:35:12;;;;;;;7.60;1.17;;;7.10;99.90;;;;;;5058775;28;20232;-83
2023/01/09 07:37:38;;;;;;;5.53;1.10;;;7.10;99.90;;;;;;5057113;28;20702;-83
2023/01/09 07:40:04;;;;;;;5.43;1.10;;;7.10;99.90;;;;;;5057102;28;20294;-83
2023/01/09 07:42:29;;;;;;;6.30;1.57;;;7.10;99.90;;;;;;5058443;28;20230;-83
2023/01/09 07:44:55;;;;;;;3.33;1.10;;;7.10;99.90;;;;;;5058371;28;20241;-83
2023/01/09 07:47:20;;;;;;;3.37;1.20;;;7.10;99.90;;;;;;5057919;28;20226;-83
2023/01/09 07:49:46;;;;;;;7.03;1.40;;;7.10;99.90;;;;;;5057512;28;20666;-83
2023/01/09 07:52:12;;;;;;;6.80;1.57;;;7.10;99.90;;;;;;5058128;28;20554;-83
2023/01/09 07:54:37;;;;;;;3.63;0.83;;;7.10;99.90;;;;;;5057332;28;20553;-82
2023/01/09 07:57:03;;;;;;;4.90;1.40;;;7.10;99.90;;;;;;5057459;28;20226;-83
2023/01/09 07:59:29;;;;;;;6.00;1.23;;;7.20;99.90;;;;;;5058679;28;20210;-83
2023/01/09 08:01:55;;;;;;;7.67;1.40;;;7.10;99.90;;;;;;5056791;28;20200;-82
2023/01/09 08:04:21;;;;;;;7.33;1.40;;;7.10;99.90;;;;;;5056883;28;20186;-83
2023/01/09 08:06:47;;;;;;;9.60;1.20;;;7.20;99.90;;;;;;5056624;28;20176;-82
2023/01/09 08:09:13;;;;;;;3.83;1.30;;;7.10;99.90;;;;;;5056746;28;20175;-83
2023/01/09 08:11:39;;;;;;;4.67;0.90;;;7.10;99.90;;;;;;5058085;28;20224;-83
2023/01/09 08:14:05;;;;;;;2.33;1.00;;;7.20;99.90;;;;;;5056312;28;20650;-83
2023/01/09 08:16:30;;;;;;;6.03;1.30;;;7.20;99.90;;;;;;5058140;28;20173;-83
2023/01/09 08:18:56;;;;;;;2.67;1.20;;;7.20;99.90;;;;;;5056260;28;20274;-83
2023/01/09 08:21:21;;;;;;;5.13;1.37;;;7.20;99.90;;;;;;5057828;28;20207;-82
2023/01/09 08:23:47;;;;;;;4.80;1.20;;;7.20;99.90;;;;;;5056737;28;20176;-82
2023/01/09 08:26:12;;;;;;;3.13;0.93;;;7.30;99.90;;;;;;5058386;28;20178;-83
2023/01/09 08:28:38;;;;;;;2.53;0.90;;;7.30;99.90;;;;;;5057934;28;20175;-83
2023/01/09 08:31:04;;;;;;;8.03;1.63;;;7.30;99.90;;;;;;5056173;28;20198;-83
2023/01/09 08:33:31;;;;;;;8.83;1.37;;;7.30;99.90;;;;;;5056331;28;20365;-83
2023/01/09 08:35:56;;;;;;;6.23;1.40;;;7.40;99.90;;;;;;5057908;28;20175;-83
2023/01/09 08:38:22;;;;;;;6.07;1.53;;;7.40;99.90;;;;;;5058725;28;20294;-83
2023/01/09 08:40:47;;;;;;;8.77;1.43;;;7.40;99.90;;;;;;5057678;28;20188;-83
2023/01/09 08:48:42;;;;;;;6.23;1.20;;;7.50;99.90;;;;;;5057921;28;20171;-82
2023/01/09 08:51:08;;;;;;;5.93;1.13;;;7.50;99.90;;;;;;5057484;28;20199;-83
2023/01/09 08:53:34;;;;;;;5.43;1.23;;;7.50;99.90;;;;;;5056535;28;20191;-83
2023/01/09 08:55:59;;;;;;;3.30;0.90;;;7.50;99.90;;;;;;5060137;28;20584;-82
2023/01/09 08:58:25;;;;;;;7.40;1.40;;;7.50;99.90;;;;;;5059125;28;20294;-83
2023/01/09 09:00:51;;;;;;;4.93;1.17;;;7.60;99.90;;;;;;5059805;28;20213;-83
2023/01/09 09:03:16;;;;;;;7.20;1.80;;;7.50;99.90;;;;;;5057379;28;20178;-83
2023/01/09 09:05:42;;;;;;;6.97;1.60;;;7.60;99.90;;;;;;5060909;28;20635;-83
2023/01/09 09:08:07;;;;;;;8.67;1.60;;;7.60;99.90;;;;;;5059942;28;20229;-83
2023/01/09 09:10:33;;;;;;;7.60;1.87;;;7.60;99.90;;;;;;5058425;28;20203;-83
2023/01/09 09:13:00;;;;;;;5.13;1.30;;;7.50;99.90;;;;;;5060186;28;20174;-83
2023/01/09 09:15:27;;;;;;;5.67;1.20;;;7.60;99.90;;;;;;5059752;28;20178;-82
2023/01/09 09:17:53;;;;;;;8.67;1.10;;;7.50;99.90;;;;;;5058017;28;20214;-83
2023/01/09 09:20:20;;;;;;;6.10;1.07;;;7.60;99.90;;;;;;5058553;28;20215;-83
2023/01/09 09:22:47;;;;;;;7.23;1.23;;;7.60;99.90;;;;;;5058729;28;20178;-83
2023/01/09 09:25:14;;;;;;;7.23;1.30;;;7.60;99.90;;;;;;5058873;28;20205;-83
2023/01/09 09:27:40;;;;;;;4.60;1.17;;;7.70;99.90;;;;;;5060735;28;20542;-83
2023/01/09 09:30:06;;;;;;;5.70;1.27;;;7.70;99.90;;;;;;5059994;28;20180;-83
2023/01/09 09:32:32;;;;;;;2.93;1.27;;;7.70;99.90;;;;;;5060274;28;20554;-83
2023/01/09 09:34:57;;;;;;;6.37;1.20;;;7.70;99.90;;;;;;5060250;28;20176;-83
2023/01/09 09:37:23;;;;;;;8.23;1.60;;;7.80;99.90;;;;;;5058551;28;20229;-82
2023/01/09 09:39:49;;;;;;;5.57;1.03;;;7.80;99.90;;;;;;5060672;28;20534;-82
2023/01/09 09:45:52;;;;;;;3.37;1.33;;;7.80;99.90;;;;;;5061763;28;20274;-84
2023/01/09 09:48:37;;;;;;;5.53;1.80;;;7.90;99.90;;;;;;5058468;28;20191;-83
2023/01/09 09:51:14;;;;;;;1.90;0.80;;;7.90;99.90;;;;;;5061556;28;20204;-83
2023/01/09 09:54:01;;;;;;;5.70;1.10;;;7.90;99.90;;;;;;5060073;28;20363;-83
2023/01/09 09:56:32;;;;;;;7.30;1.03;;;7.90;99.90;;;;;;5059062;28;20206;-83
2023/01/09 09:59:16;;;;;;;5.13;1.37;;;7.90;99.90;;;;;;5060027;28;20663;-82
2023/01/09 10:02:02;;;;;;;3.90;1.10;;;7.90;99.90;;;;;;5058830;28;20199;-83
2023/01/09 10:04:31;;;;;;;2.17;0.80;;;8.00;99.90;;;;;;5063000;28;20182;-83
2023/01/09 10:07:04;;;;;;;3.93;1.10;;;8.00;99.90;;;;;;5062006;28;20163;-83
2023/01/09 10:09:47;;;;;;;3.40;1.17;;;8.00;99.90;;;;;;5060400;28;20210;-83
2023/01/09 10:12:16;;;;;;;5.80;1.50;;;8.10;99.90;;;;;;5060598;28;20196;-83
2023/01/09 10:14:41;;;;;;;7.27;1.20;;;8.10;99.90;;;;;;5060668;28;20194;-83
2023/01/09 10:17:07;;;;;;;8.00;1.20;;;8.10;99.90;;;;;;5061118;28;20199;-83
2023/01/09 10:19:46;;;;;;;3.00;0.90;;;8.20;99.90;;;;;;5060839;28;20205;-83
2023/01/09 10:22:33;;;;;;;4.43;0.97;;;8.30;99.90;;;;;;5061844;28;20207;-83
2023/01/09 10:25:18;;;;;;;5.20;1.30;;;8.30;99.90;;;;;;5062019;28;20171;-83
2023/01/09 10:28:18;;;;;;;4.10;1.23;;;8.40;99.90;;;;;;5062308;28;20630;-83
2023/01/09 10:30:52;;;;;;;8.57;1.10;;;8.40;99.90;;;;;;5063560;28;20203;-83
2023/01/09 10:33:47;;;;;;;4.80;0.83;;;8.40;99.90;;;;;;5064038;28;20179;-83
2023/01/09 10:36:27;;;;;;;3.43;0.83;;;8.40;99.90;;;;;;5063826;28;20180;-83
2023/01/09 10:38:56;;;;;;;4.30;1.17;;;8.40;99.90;;;;;;5066496;28;20195;-83
2023/01/09 10:41:30;;;;;;;7.10;1.27;;;8.40;99.90;;;;;;5065814;28;20249;-83
2023/01/09 10:44:03;;;;;;;2.37;1.00;;;8.40;99.90;;;;;;5066443;28;20229;-83
2023/01/09 10:46:37;;;;;;;2.70;0.90;;;8.40;99.90;;;;;;5067130;28;20171;-83
2023/01/09 10:49:11;;;;;;;3.27;1.10;;;8.40;99.90;;;;;;5067980;28;20164;-83
2023/01/09 10:51:49;;;;;;;3.70;0.97;;;8.40;99.90;;;;;;5067844;28;20202;-83
2023/01/09 10:54:22;;;;;;;4.33;1.17;;;8.50;99.90;;;;;;5071177;28;20198;-82
2023/01/09 10:56:55;;;;;;;3.47;0.90;;;8.50;99.90;;;;;;5075457;28;20156;-83
2023/01/09 10:59:24;;;;;;;4.00;1.20;;;8.50;99.90;;;;;;5073957;28;20210;-83
2023/01/09 11:01:50;;;;;;;6.00;1.17;;;8.50;99.90;;;;;;5063272;28;20360;-83
2023/01/09 11:04:28;;;;;;;3.00;1.13;;;8.50;99.90;;;;;;5055343;28;20230;-83
2023/01/09 11:06:59;;;;;;;7.30;1.17;;;8.50;99.90;;;;;;5054935;28;20255;-83
2023/01/09 11:09:24;;;;;;;7.23;1.10;;;8.50;99.90;;;;;;5055507;28;20168;-83
2023/01/09 11:11:50;;;;;;;5.13;0.97;;;8.50;99.90;;;;;;5054533;28;20206;-83
2023/01/09 11:14:27;;;;;;;2.90;0.93;;;8.50;99.90;;;;;;5054615;28;20219;-83
2023/01/09 11:16:58;;;;;;;4.30;1.00;;;8.50;99.90;;;;;;5056924;28;20167;-83
2023/01/09 11:19:25;;;;;;;4.03;1.00;;;8.50;99.90;;;;;;5056481;28;20239;-83
2023/01/09 11:22:16;;;;;;;2.67;1.00;;;8.50;99.90;;;;;;5054200;28;20215;-83
2023/01/09 11:24:42;;;;;;;6.43;1.27;;;8.60;99.90;;;;;;5053610;28;20175;-83
2023/01/09 11:27:11;;;;;;;6.23;1.60;;;8.60;99.90;;;;;;5053121;28;20182;-83
2023/01/09 11:29:37;;;;;;;3.73;0.90;;;8.60;99.90;;;;;;5054369;28;20176;-84
2023/01/09 11:32:02;;;;;;;7.37;1.30;;;8.60;99.90;;;;;;5054691;28;20195;-83
2023/01/09 11:34:31;;;;;;;4.93;0.97;;;8.60;99.90;;;;;;5052884;28;20269;-83
2023/01/09 11:37:12;;;;;;;6.00;1.00;;;8.60;99.90;;;;;;5055253;28;20176;-83
2023/01/09 11:39:44;;;;;;;9.00;1.10;;;8.60;99.90;;;;;;5057535;28;20722;-84
2023/01/09 11:42:50;;;;;;;6.13;1.10;;;8.60;99.90;;;;;;5057303;28;20206;-83
2023/01/09 11:45:23;;;;;;;5.80;1.20;;;8.60;99.90;;;;;;5058658;28;20168;-83
2023/01/09 11:47:48;;;;;;;4.33;0.90;;;8.60;99.90;;;;;;5058809;28;20152;-84
2023/01/09 11:50:20;;;;;;;3.97;1.20;;;8.70;99.90;;;;;;5056716;28;20237;-83
2023/01/09 11:53:06;;;;;;;3.83;1.10;;;8.60;99.90;;;;;;5056635;28;20180;-83
2023/01/09 11:55:31;;;;;;;7.07;1.13;;;8.70;99.90;;;;;;5056497;28;20175;-83
2023/01/09 11:57:57;;;;;;;6.57;1.50;;;8.60;99.90;;;;;;5056426;28;20213;-83
2023/01/09 12:00:27;;;;;;;3.63;1.07;;;8.60;99.90;;;;;;5057652;28;20191;-83
2023/01/09 12:03:22;;;;;;;5.07;1.20;;;8.60;99.90;;;;;;5057255;28;20198;-85
2023/01/09 12:06:21;;;;;;;5.60;1.23;;;8.60;99.90;;;;;;5057661;28;20163;-85
2023/01/09 12:09:05;;;;;;;2.40;1.10;;;8.70;99.90;;;;;;5057025;28;20211;-84
2023/01/09 12:11:46;;;;;;;3.00;0.80;;;8.80;99.90;;;;;;5055114;28;20577;-84
2023/01/09 12:14:18;;;;;;;5.17;1.10;;;8.80;99.90;;;;;;5055145;28;20168;-85
2023/01/09 12:17:06;;;;;;;2.47;0.90;;;8.80;99.90;;;;;;5056226;28;20171;-84
2023/01/09 12:19:51;;;;;;;1.90;0.80;;;8.80;99.90;;;;;;5054948;28;20218;-84
2023/01/09 12:22:28;;;;;;;2.00;0.73;;;8.80;99.90;;;;;;5054814;28;20179;-85
2023/01/09 12:25:08;;;;;;;4.43;0.83;;;8.80;99.90;;;;;;5054770;28;20191;-84
2023/01/09 12:28:03;;;;;;;3.50;1.00;;;8.70;99.90;;;;;;5054668;28;20604;-84
2023/01/09 12:30:50;;;;;;;1.13;0.80;;;8.70;99.90;;;;;;5052781;28;20200;-85
2023/01/09 12:33:48;;;;;;;3.57;1.03;;;8.60;99.90;;;;;;5054617;28;20170;-84
2023/01/09 12:36:41;;;;;;;1.17;0.70;;;8.60;99.90;;;;;;5054621;28;20167;-85
2023/01/09 12:39:51;;;;;;;2.10;1.03;;;8.60;99.90;;;;;;5056858;28;20195;-83
2023/01/09 12:42:33;;;;;;;5.17;1.07;;;8.60;99.90;;;;;;5033033;28;20176;-83
2023/01/09 12:45:21;;;;;;;4.47;1.10;;;8.50;99.90;;;;;;5066755;28;20171;-83
2023/01/09 12:47:51;;;;;;;5.50;1.23;;;8.40;99.90;;;;;;5065374;28;20164;-82
2023/01/09 12:50:42;;;;;;;4.33;1.00;;;8.40;99.90;;;;;;5066163;28;20195;-83
2023/01/09 12:53:20;;;;;;;4.10;1.00;;;8.30;99.90;;;;;;5060729;28;20174;-82
2023/01/09 12:55:59;;;;;;;5.03;1.33;;;8.30;99.90;;;;;;5062491;28;20198;-82
2023/01/09 12:58:44;;;;;;;5.13;0.90;;;8.20;99.90;;;;;;5063013;28;20187;-83
2023/01/09 13:01:18;;;;;;;3.57;1.20;;;8.20;99.90;;;;;;5060128;28;20675;-83
2023/01/09 13:04:02;;;;;;;3.27;1.23;;;8.10;99.90;;;;;;5059600;28;20198;-82
2023/01/09 13:06:30;;;;;;;1.67;1.10;;;8.00;99.90;;;;;;5060746;28;20168;-83
2023/01/09 13:09:13;;;;;;;2.83;1.27;;;8.00;99.90;;;;;;5061361;28;20176;-83
2023/01/09 13:12:12;;;;;;;1.93;1.10;;;8.00;99.90;;;;;;5063475;28;20205;-82
2023/01/09 13:14:43;;;;;;;3.23;1.27;;;8.10;99.90;;;;;;5046600;28;20192;-82
2023/01/09 13:17:25;;;;;;;3.87;1.27;;;8.10;99.90;;;;;;5062801;28;20168;-82
2023/01/09 13:19:52;;;;;;;5.43;1.27;;;8.10;99.90;;;;;;5061140;28;20222;-83
2023/01/09 13:22:19;;;;;;;2.00;0.90;;;8.10;99.90;;;;;;5064360;28;20206;-83
2023/01/09 13:25:20;;;;;;;4.03;1.17;;;8.10;99.90;;;;;;5060248;28;20180;-83
2023/01/09 13:27:54;;;;;;;2.97;1.13;;;8.20;99.90;;;;;;5057301;28;20257;-83